Notice: Undefined index: name in /home/yearbywe/public_html/pwsTEST/metar_load_funct.php on line 53

Notice: Undefined index: humidity_percent in /home/yearbywe/public_html/pwsTEST/metar_load_funct.php on line 95
Metar Aviation Weather Data     EGNV
 X  CloseMetar Aviation Weather Data     EGNV

Temperature

12°C Temp

6°C Dewpoint

% Humidity



Wind

21 KM/H

13 MPH

11 KTS



230°
South West
Current Conditions

Partly Cloudy Partly Cloudy
Pressure 1014.92 (hPa) - 29.97 (in)
Visibility 6.2 (mi) - 10 (km)
Airport
Airport-code EGNV

Location 0 (mi)

Metar:
EGNV 230720Z 23011KT 9999 FEW030 12/06 Q1015


Notice: Undefined offset: 1 in /home/yearbywe/public_html/pwsTEST/metar_popup.php on line 198

Notice: Undefined offset: 1 in /home/yearbywe/public_html/pwsTEST/metar_popup.php on line 200
Time: 08-11-2028 00:00